Time;durP1;ratioP1;P1;durP2;ratioP2;P2;SDS_P1;SDS_P2;PMS_P1;PMS_P2;Temp;Humidity;BMP_temperature;BMP_pressure;BME280_temperature;BME280_humidity;BME280_pressure;Samples;Min_cycle;Max_cycle;Signal;HPM_P1;HPM_P2
2021/12/28 00:01:24;;;;;;;2.80;2.28;;;-13.60;99.90;;;;;;4937973;29;20036;-67
2021/12/28 00:03:52;;;;;;;6.55;2.78;;;-13.70;99.90;;;;;;4938125;29;20395;-67
2021/12/28 00:06:18;;;;;;;5.32;2.53;;;-13.70;99.90;;;;;;4937925;29;20449;-67
2021/12/28 00:08:45;;;;;;;3.80;2.72;;;-13.80;99.90;;;;;;4936851;29;20115;-67
2021/12/28 00:11:11;;;;;;;4.38;2.67;;;-13.80;99.90;;;;;;4937932;29;20024;-67
2021/12/28 00:13:39;;;;;;;2.55;2.10;;;-13.70;99.90;;;;;;4936803;29;20024;-67
2021/12/28 00:18:33;;;;;;;2.65;2.20;;;-13.70;99.90;;;;;;4938278;29;20492;-67
2021/12/28 00:21:02;;;;;;;3.72;2.45;;;-13.60;99.90;;;;;;4938156;29;20031;-67
2021/12/28 00:23:36;;;;;;;2.83;2.35;;;-13.50;99.90;;;;;;4937863;29;20365;-67
2021/12/28 00:26:05;;;;;;;4.18;2.53;;;-13.40;99.90;;;;;;4937965;29;20035;-67
2021/12/28 00:28:31;;;;;;;2.55;2.00;;;-13.30;99.90;;;;;;4937710;29;20383;-67
2021/12/28 00:30:57;;;;;;;2.88;2.38;;;-13.30;99.90;;;;;;4937977;29;20028;-66
2021/12/28 00:33:25;;;;;;;2.65;2.20;;;-13.30;99.90;;;;;;4937739;29;20035;-66
2021/12/28 00:35:51;;;;;;;3.30;2.28;;;-13.30;99.90;;;;;;4937643;29;20435;-66
2021/12/28 00:38:24;;;;;;;3.17;2.50;;;-13.40;99.90;;;;;;4937183;29;20067;-66
2021/12/28 00:40:53;;;;;;;3.50;2.10;;;-13.30;99.90;;;;;;4937448;29;20032;-66
2021/12/28 00:43:19;;;;;;;3.08;2.30;;;-13.30;99.90;;;;;;4937129;29;20035;-67
2021/12/28 00:45:45;;;;;;;2.38;2.15;;;-13.20;99.90;;;;;;4937361;29;20039;-66
2021/12/28 00:48:11;;;;;;;5.20;2.53;;;-13.30;99.90;;;;;;4937090;29;20159;-66
2021/12/28 00:50:37;;;;;;;6.97;2.42;;;-13.20;99.90;;;;;;4937205;29;20114;-66
2021/12/28 00:53:04;;;;;;;3.25;2.47;;;-13.20;99.90;;;;;;4937373;29;20444;-67
2021/12/28 00:55:29;;;;;;;2.45;2.00;;;-13.20;99.90;;;;;;4937051;29;20653;-67
2021/12/28 00:57:55;;;;;;;2.55;2.00;;;-13.20;99.90;;;;;;4937152;29;20039;-67
2021/12/28 01:00:26;;;;;;;3.50;2.42;;;-13.20;99.90;;;;;;4936928;29;20096;-67
2021/12/28 01:02:54;;;;;;;4.00;2.20;;;-13.20;99.90;;;;;;4937314;29;20051;-66
2021/12/28 01:05:20;;;;;;;2.20;2.03;;;-13.30;99.90;;;;;;4936805;29;20027;-65
2021/12/28 01:07:46;;;;;;;2.35;2.15;;;-13.30;99.90;;;;;;4937122;29;20027;-65
2021/12/28 01:10:17;;;;;;;2.28;2.05;;;-13.30;99.90;;;;;;4936689;29;20055;-65
2021/12/28 01:12:44;;;;;;;4.32;2.58;;;-13.30;99.90;;;;;;4936938;29;20030;-66
2021/12/28 01:15:12;;;;;;;4.15;2.58;;;-13.30;99.90;;;;;;4936887;29;20034;-66
2021/12/28 01:17:38;;;;;;;3.42;2.60;;;-13.30;99.90;;;;;;4937056;29;20028;-66
2021/12/28 01:20:06;;;;;;;3.35;2.65;;;-13.20;99.90;;;;;;4936746;29;20419;-65
2021/12/28 01:22:33;;;;;;;4.05;2.08;;;-13.20;99.90;;;;;;4936538;29;20082;-65
2021/12/28 01:24:58;;;;;;;3.50;2.30;;;-13.20;99.90;;;;;;4936596;29;20487;-65
2021/12/28 01:27:24;;;;;;;2.97;2.22;;;-13.30;99.90;;;;;;4936353;29;20044;-64
2021/12/28 01:29:50;;;;;;;3.08;2.22;;;-13.30;99.90;;;;;;4936549;29;20024;-64
2021/12/28 01:32:16;;;;;;;2.72;2.30;;;-13.30;99.90;;;;;;4936331;29;20027;-64
2021/12/28 01:34:43;;;;;;;2.85;2.22;;;-13.30;99.90;;;;;;4936665;29;20027;-64
2021/12/28 01:37:09;;;;;;;2.33;2.13;;;-13.30;99.90;;;;;;4936288;29;20107;-65
2021/12/28 01:39:35;;;;;;;2.65;2.22;;;-13.30;99.90;;;;;;4936786;29;20042;-65
2021/12/28 01:42:05;;;;;;;5.05;2.42;;;-13.30;99.90;;;;;;4951076;29;20027;-65
2021/12/28 01:44:31;;;;;;;;;;;-13.30;99.90;;;;;;4936886;29;20028;-65
2021/12/28 01:46:57;;;;;;;4.55;2.13;;;-13.30;99.90;;;;;;4936312;29;19907;-65
2021/12/28 01:49:24;;;;;;;2.63;2.05;;;-13.30;99.90;;;;;;4935622;29;20028;-65
2021/12/28 01:51:50;;;;;;;2.38;2.03;;;-13.20;99.90;;;;;;4936129;29;20039;-65
2021/12/28 01:54:16;;;;;;;4.45;2.45;;;-13.20;99.90;;;;;;4936255;29;20038;-65
2021/12/28 01:56:44;;;;;;;4.75;2.63;;;-13.20;99.90;;;;;;4935999;29;20036;-65
2021/12/28 01:59:16;;;;;;;4.57;2.50;;;-13.30;99.90;;;;;;4936242;29;20027;-65
2021/12/28 02:01:42;;;;;;;2.75;2.42;;;-13.30;99.90;;;;;;4936063;29;20028;-65
2021/12/28 02:04:16;;;;;;;2.33;1.92;;;-13.30;99.90;;;;;;4935859;29;20024;-66
2021/12/28 02:06:42;;;;;;;2.65;2.25;;;-13.30;99.90;;;;;;4935815;29;20482;-65
2021/12/28 02:09:08;;;;;;;4.07;2.40;;;-13.30;99.90;;;;;;4936026;29;20111;-65
2021/12/28 02:11:34;;;;;;;3.25;2.20;;;-13.30;99.90;;;;;;4935774;29;20420;-65
2021/12/28 02:14:01;;;;;;;3.50;2.63;;;-13.30;99.90;;;;;;4935802;29;20027;-65
2021/12/28 02:16:27;;;;;;;2.72;2.22;;;-13.30;99.90;;;;;;4934254;29;20511;-65
2021/12/28 02:18:52;;;;;;;2.30;2.10;;;-13.30;99.90;;;;;;4935521;29;20032;-65
2021/12/28 02:21:18;;;;;;;3.67;2.63;;;-13.30;99.90;;;;;;4935807;29;20028;-65
2021/12/28 02:23:44;;;;;;;3.83;2.28;;;-13.20;99.90;;;;;;4935780;29;20024;-65
2021/12/28 02:52:49;;;;;;;2.20;2.05;;;-13.30;99.90;;;;;;4934182;29;20055;-68
2021/12/28 02:55:17;;;;;;;2.30;2.00;;;-13.30;99.90;;;;;;4935259;29;20044;-68
2021/12/28 02:57:54;;;;;;;2.33;2.13;;;-13.30;99.90;;;;;;4935291;29;20110;-69
2021/12/28 03:00:42;;;;;;;3.67;2.55;;;-13.30;99.90;;;;;;4935085;29;20067;-68
2021/12/28 03:39:25;;;;;;;1.80;1.67;;;-12.90;99.90;;;;;;4989939;23;20111;-69
2021/12/28 03:41:51;;;;;;;3.97;2.55;;;-12.90;99.90;;;;;;4992370;28;20026;-69
2021/12/28 03:44:16;;;;;;;3.58;2.65;;;-12.90;99.90;;;;;;4992282;28;20113;-68
2021/12/28 03:46:42;;;;;;;4.15;2.38;;;-12.80;99.90;;;;;;4992411;28;20102;-68
2021/12/28 03:49:08;;;;;;;2.58;2.38;;;-12.80;99.90;;;;;;4992386;28;20061;-68
2021/12/28 03:51:34;;;;;;;2.50;2.30;;;-12.80;99.90;;;;;;4992479;28;20026;-68
2021/12/28 03:53:59;;;;;;;3.50;2.30;;;-12.70;99.90;;;;;;4992361;28;20027;-68
2021/12/28 03:56:25;;;;;;;6.57;2.30;;;-12.70;99.90;;;;;;4992274;28;20478;-67
2021/12/28 03:58:52;;;;;;;4.25;2.70;;;-12.60;99.90;;;;;;4992203;28;20034;-68
2021/12/28 04:01:22;;;;;;;6.65;2.63;;;-12.60;99.90;;;;;;4992277;28;20030;-67
2021/12/28 04:03:48;;;;;;;3.05;2.42;;;-12.60;99.90;;;;;;4992384;28;20019;-68
2021/12/28 04:06:14;;;;;;;5.15;2.53;;;-12.50;99.90;;;;;;4992572;28;20030;-68
2021/12/28 04:08:41;;;;;;;4.30;2.47;;;-12.50;99.90;;;;;;4992323;28;20157;-68
2021/12/28 04:13:48;;;;;;;3.13;2.45;;;-12.40;99.90;;;;;;4994512;28;20031;-67
2021/12/28 04:16:15;;;;;;;3.05;2.40;;;-12.50;99.90;;;;;;4995957;28;20046;-68
2021/12/28 04:18:41;;;;;;;3.28;2.13;;;-12.50;99.90;;;;;;4995832;28;20396;-67
2021/12/28 04:21:08;;;;;;;2.72;2.30;;;-12.60;99.90;;;;;;4996001;28;20549;-68
2021/12/28 04:23:34;;;;;;;2.72;2.38;;;-12.60;99.90;;;;;;4995694;28;20042;-68
2021/12/28 04:26:00;;;;;;;3.47;2.20;;;-12.60;99.90;;;;;;4995751;28;20019;-68
2021/12/28 04:28:26;;;;;;;3.25;2.25;;;-12.60;99.90;;;;;;4995833;28;20030;-68
2021/12/28 04:30:52;;;;;;;3.25;2.20;;;-12.50;99.90;;;;;;4995537;28;20026;-68
2021/12/28 04:33:18;;;;;;;3.45;2.70;;;-12.40;99.90;;;;;;4995484;28;20060;-68
2021/12/28 04:35:43;;;;;;;3.65;2.60;;;-12.40;99.90;;;;;;4995282;28;20462;-68
2021/12/28 04:38:09;;;;;;;2.53;2.20;;;-12.40;99.90;;;;;;4985529;28;20055;-68
2021/12/28 04:40:35;;;;;;;4.53;2.75;;;-12.40;99.90;;;;;;4975926;28;20406;-68
2021/12/28 04:43:01;;;;;;;5.18;2.55;;;-12.40;99.90;;;;;;4975973;28;20066;-68
2021/12/28 04:45:27;;;;;;;3.28;2.50;;;-12.30;99.90;;;;;;4975869;28;20054;-68
2021/12/28 04:47:53;;;;;;;4.32;2.65;;;-12.30;99.90;;;;;;4975674;28;20022;-68
2021/12/28 04:50:19;;;;;;;3.90;2.58;;;-12.30;99.90;;;;;;4976023;28;20077;-68
2021/12/28 04:52:45;;;;;;;4.20;2.20;;;-12.30;99.90;;;;;;4975580;28;20026;-68
2021/12/28 04:55:14;;;;;;;4.50;2.58;;;-12.30;99.90;;;;;;4975560;28;20437;-68
2021/12/28 04:57:40;;;;;;;3.33;2.40;;;-12.30;99.90;;;;;;4975605;28;20125;-68
2021/12/28 05:00:11;;;;;;;6.03;2.70;;;-12.20;99.90;;;;;;4975472;28;20034;-68
2021/12/28 05:02:37;;;;;;;5.75;2.67;;;-12.10;99.90;;;;;;4975344;28;20059;-68
2021/12/28 05:05:03;;;;;;;4.03;2.78;;;-12.20;99.90;;;;;;4975520;28;20071;-68
2021/12/28 05:07:29;;;;;;;6.88;2.92;;;-12.10;99.90;;;;;;4975378;28;20511;-68
2021/12/28 05:09:57;;;;;;;4.55;2.80;;;-12.10;99.90;;;;;;4975191;28;20026;-68
2021/12/28 05:12:25;;;;;;;3.05;2.60;;;-12.10;99.90;;;;;;4975304;28;20038;-68
2021/12/28 05:14:51;;;;;;;6.30;2.78;;;-12.10;99.90;;;;;;4974928;28;20489;-68
2021/12/28 05:17:16;;;;;;;6.18;3.00;;;-12.00;99.90;;;;;;4975511;28;20041;-67
2021/12/28 05:19:43;;;;;;;3.45;2.33;;;-12.00;99.90;;;;;;4974954;28;20026;-67
2021/12/28 05:22:09;;;;;;;5.35;2.45;;;-12.00;99.90;;;;;;4975406;28;20039;-68
2021/12/28 05:24:35;;;;;;;4.18;2.65;;;-12.00;99.90;;;;;;4974127;28;20027;-68
2021/12/28 05:27:02;;;;;;;4.40;2.28;;;-12.00;99.90;;;;;;4974954;28;20394;-68
2021/12/28 05:29:28;;;;;;;5.78;2.45;;;-12.00;99.90;;;;;;4975044;28;20031;-69
2021/12/28 05:31:53;;;;;;;10.18;4.00;;;-11.90;99.90;;;;;;4974958;28;20027;-72
2021/12/28 05:34:19;;;;;;;4.85;2.88;;;-11.90;99.90;;;;;;4974960;28;20019;-74
2021/12/28 05:36:46;;;;;;;3.65;2.63;;;-11.90;99.90;;;;;;4974923;28;20038;-68
2021/12/28 05:39:12;;;;;;;3.00;2.28;;;-11.90;99.90;;;;;;4974626;28;20051;-72
2021/12/28 05:41:38;;;;;;;4.18;2.60;;;-11.60;99.90;;;;;;4974651;28;20081;-71
2021/12/28 05:44:04;;;;;;;3.83;2.55;;;-10.30;99.90;;;;;;4974592;28;20135;-70
2021/12/28 05:46:30;;;;;;;7.32;2.50;;;-10.30;99.90;;;;;;4974752;28;20461;-69
2021/12/28 05:48:56;;;;;;;4.30;2.72;;;-10.60;99.90;;;;;;4974074;28;20039;-69
2021/12/28 05:51:21;;;;;;;5.57;2.67;;;-10.90;99.90;;;;;;4974776;28;20023;-70
2021/12/28 05:53:47;;;;;;;3.05;2.47;;;-11.10;99.90;;;;;;4974071;28;20042;-68
2021/12/28 05:56:13;;;;;;;4.63;2.60;;;-11.20;99.90;;;;;;4974083;28;20077;-70
2021/12/28 05:58:39;;;;;;;3.80;3.08;;;-11.30;99.90;;;;;;4973948;28;20490;-72
2021/12/28 06:01:05;;;;;;;5.10;2.58;;;-11.30;99.90;;;;;;4973948;28;20031;-74
2021/12/28 06:03:31;;;;;;;4.50;2.50;;;-11.40;99.90;;;;;;4974188;28;20018;-73
2021/12/28 06:05:56;;;;;;;5.82;2.38;;;-11.50;99.90;;;;;;4974041;28;20027;-74
2021/12/28 06:08:22;;;;;;;4.53;2.92;;;-11.50;99.90;;;;;;4973440;28;20026;-74
2021/12/28 06:10:48;;;;;;;3.53;2.30;;;-11.40;99.90;;;;;;4973623;28;20027;-74
2021/12/28 06:13:14;;;;;;;4.43;2.55;;;-11.40;99.90;;;;;;4973725;28;20114;-73
2021/12/28 06:15:40;;;;;;;8.98;2.88;;;-11.40;99.90;;;;;;4973376;28;20093;-71
2021/12/28 06:18:05;;;;;;;6.82;3.25;;;-11.30;99.90;;;;;;4974068;28;20486;-71
2021/12/28 06:20:31;;;;;;;4.75;2.65;;;-11.30;99.90;;;;;;4973794;28;20533;-71
2021/12/28 06:22:57;;;;;;;4.88;2.63;;;-11.30;99.90;;;;;;4973838;28;20050;-72
2021/12/28 06:25:23;;;;;;;2.55;2.30;;;-11.30;99.90;;;;;;4974081;28;20061;-74
2021/12/28 06:27:48;;;;;;;3.53;2.83;;;-11.30;99.90;;;;;;4973873;28;20031;-75
2021/12/28 06:30:15;;;;;;;4.53;2.35;;;-11.30;99.90;;;;;;4973918;28;20445;-73
2021/12/28 06:32:41;;;;;;;6.78;3.35;;;-10.90;99.90;;;;;;4973809;28;20502;-74
2021/12/28 06:35:08;;;;;;;13.98;3.88;;;-10.90;99.90;;;;;;4973954;28;20035;-73
2021/12/28 06:37:34;;;;;;;6.45;3.65;;;-11.00;99.90;;;;;;4973499;28;20035;-73
2021/12/28 06:40:00;;;;;;;7.25;3.97;;;-11.10;99.90;;;;;;4973582;28;20026;-74
2021/12/28 06:42:25;;;;;;;7.00;3.22;;;-11.10;99.90;;;;;;4973726;28;20030;-73
2021/12/28 06:44:52;;;;;;;5.65;3.50;;;-11.10;99.90;;;;;;4973472;28;20398;-74
2021/12/28 06:47:19;;;;;;;8.77;3.83;;;-11.20;99.90;;;;;;4973655;28;20023;-73
2021/12/28 06:49:45;;;;;;;15.70;2.60;;;-11.20;99.90;;;;;;4973455;28;20031;-74
2021/12/28 06:52:12;;;;;;;6.45;3.40;;;-10.20;99.90;;;;;;4973598;28;20110;-74
2021/12/28 06:54:39;;;;;;;7.00;3.78;;;-9.00;99.90;;;;;;4973453;28;20022;-73
2021/12/28 06:57:09;;;;;;;4.95;3.15;;;-9.30;99.90;;;;;;4973453;28;20050;-73
2021/12/28 06:59:44;;;;;;;8.32;3.42;;;-9.70;99.90;;;;;;4973479;28;20108;-72
2021/12/28 07:02:11;;;;;;;4.15;2.63;;;-10.00;99.90;;;;;;4973544;28;20034;-76
2021/12/28 07:04:37;;;;;;;10.52;3.58;;;-9.20;99.90;;;;;;4973422;28;20027;-75
2021/12/28 07:07:04;;;;;;;6.28;3.45;;;-9.40;99.90;;;;;;4973364;28;20041;-75
2021/12/28 07:09:30;;;;;;;10.38;4.05;;;-9.70;99.90;;;;;;4973378;28;20019;-76
2021/12/28 07:11:55;;;;;;;6.10;3.28;;;-9.90;99.90;;;;;;4973297;28;20027;-74
2021/12/28 07:14:21;;;;;;;11.93;3.72;;;-10.00;99.90;;;;;;4973318;28;20030;-74
2021/12/28 07:16:47;;;;;;;6.22;3.70;;;-10.10;99.90;;;;;;4973468;28;20502;-74
2021/12/28 07:19:12;;;;;;;11.90;4.45;;;-10.20;99.90;;;;;;4973269;28;20034;-76
2021/12/28 07:21:39;;;;;;;10.07;3.13;;;-10.30;99.90;;;;;;4973389;28;20027;-75
2021/12/28 07:24:06;;;;;;;8.38;3.30;;;-10.30;99.90;;;;;;4973033;28;20481;-69
2021/12/28 07:26:32;;;;;;;6.93;3.05;;;-10.40;99.90;;;;;;4973176;28;20031;-74
2021/12/28 07:28:58;;;;;;;5.72;3.40;;;-10.50;99.90;;;;;;4972967;28;20114;-72
2021/12/28 07:31:24;;;;;;;6.30;3.40;;;-10.60;99.90;;;;;;4973280;28;20105;-75
2021/12/28 07:33:49;;;;;;;6.38;3.20;;;-10.60;99.90;;;;;;4972906;28;20106;-73
2021/12/28 07:36:15;;;;;;;8.70;3.22;;;-10.70;99.90;;;;;;4973010;28;20031;-71
2021/12/28 07:38:41;;;;;;;6.63;3.20;;;-10.70;99.90;;;;;;4972700;28;20514;-79
2021/12/28 07:41:07;;;;;;;6.80;3.28;;;-10.70;99.90;;;;;;4972998;28;20027;-72
2021/12/28 07:43:33;;;;;;;8.18;3.45;;;-10.80;99.90;;;;;;4973007;28;20470;-75
2021/12/28 07:45:59;;;;;;;6.05;3.17;;;-10.80;99.90;;;;;;4972908;28;20031;-74
2021/12/28 07:48:25;;;;;;;9.18;2.95;;;-10.90;99.90;;;;;;4975000;28;20027;-73
2021/12/28 07:50:50;;;;;;;9.13;3.67;;;-10.90;99.90;;;;;;4976544;28;20031;-72
2021/12/28 07:53:16;;;;;;;7.85;3.20;;;-10.90;99.90;;;;;;4976653;28;20076;-72
2021/12/28 07:55:42;;;;;;;7.38;3.13;;;-10.90;99.90;;;;;;4974968;28;20031;-74
2021/12/28 07:58:08;;;;;;;8.60;3.05;;;-10.90;99.90;;;;;;4976372;28;20023;-72
2021/12/28 08:00:34;;;;;;;5.78;2.92;;;-10.90;99.90;;;;;;4976698;28;20031;-73
2021/12/28 08:03:01;;;;;;;4.38;3.05;;;-10.90;99.90;;;;;;4976507;28;20030;-73
2021/12/28 08:05:27;;;;;;;5.32;2.92;;;-10.70;99.90;;;;;;4976349;28;20094;-75
2021/12/28 08:07:53;;;;;;;4.97;2.90;;;-10.70;99.90;;;;;;4976213;28;20105;-73
2021/12/28 08:10:21;;;;;;;5.20;3.05;;;-10.70;99.90;;;;;;4976269;28;20102;-73
2021/12/28 08:12:47;;;;;;;6.47;3.13;;;-10.70;99.90;;;;;;4976045;28;20110;-73
2021/12/28 08:15:13;;;;;;;5.05;3.20;;;-10.80;99.90;;;;;;4976284;28;20065;-75
2021/12/28 08:17:39;;;;;;;4.32;2.80;;;-10.80;99.90;;;;;;4975738;28;20409;-75
2021/12/28 08:20:10;;;;;;;4.93;2.85;;;-10.80;99.90;;;;;;4975610;28;20027;-81
2021/12/28 08:22:37;;;;;;;6.90;2.75;;;-10.80;99.90;;;;;;4976381;28;20159;-81
2021/12/28 08:25:05;;;;;;;4.75;2.88;;;-10.90;99.90;;;;;;4976286;28;20073;-81
2021/12/28 08:27:31;;;;;;;5.35;3.03;;;-10.90;99.90;;;;;;4976146;28;20482;-83
2021/12/28 08:29:56;;;;;;;4.10;2.58;;;-10.90;99.90;;;;;;4976169;28;20099;-82
2021/12/28 08:32:23;;;;;;;5.88;2.90;;;-10.80;99.90;;;;;;4974696;28;20454;-84
2021/12/28 08:34:49;;;;;;;6.68;3.08;;;-10.90;99.90;;;;;;4974576;28;20030;-86
2021/12/28 08:37:15;;;;;;;5.47;2.83;;;-10.90;99.90;;;;;;4975917;28;20402;-79
2021/12/28 08:39:42;;;;;;;10.32;3.20;;;-9.90;99.90;;;;;;4975612;28;20449;-80
2021/12/28 08:42:08;;;;;;;6.65;2.85;;;-8.30;99.90;;;;;;4975425;28;20054;-83
2021/12/28 08:44:34;;;;;;;6.88;3.53;;;-4.80;99.90;;;;;;4975267;28;20019;-71
2021/12/28 08:47:00;;;;;;;6.13;2.85;;;-2.70;99.90;;;;;;4975536;28;20034;-75
2021/12/28 08:49:27;;;;;;;9.55;3.55;;;-3.50;99.90;;;;;;4974646;28;20026;-71
2021/12/28 08:51:54;;;;;;;5.72;2.95;;;-5.00;99.90;;;;;;4973579;28;20030;-73
2021/12/28 08:54:20;;;;;;;11.57;3.63;;;-5.50;99.90;;;;;;4974201;28;20015;-73
2021/12/28 08:56:46;;;;;;;5.72;3.30;;;-6.40;99.90;;;;;;4975695;28;20049;-74
2021/12/28 08:59:13;;;;;;;5.50;3.35;;;-7.20;99.90;;;;;;4974147;28;20106;-73
2021/12/28 09:01:40;;;;;;;6.07;3.00;;;-7.90;99.90;;;;;;4975742;28;20059;-76
2021/12/28 09:04:06;;;;;;;6.60;3.25;;;-8.30;99.90;;;;;;4975378;28;20023;-73
2021/12/28 09:06:31;;;;;;;7.18;3.42;;;-8.70;99.90;;;;;;4975409;28;20080;-72
2021/12/28 09:08:57;;;;;;;7.38;3.75;;;-8.80;99.90;;;;;;4975251;28;20029;-72
2021/12/28 09:11:24;;;;;;;8.40;3.70;;;-9.00;99.90;;;;;;4974146;28;20031;-73
2021/12/28 09:13:49;;;;;;;6.85;3.45;;;-9.20;99.90;;;;;;4975202;28;20041;-73
2021/12/28 09:16:15;;;;;;;6.07;3.63;;;-9.30;99.90;;;;;;4975156;28;20478;-73
2021/12/28 09:18:41;;;;;;;13.20;3.90;;;-9.40;99.90;;;;;;4975233;28;20034;-73
2021/12/28 09:21:07;;;;;;;6.45;3.70;;;-9.60;99.90;;;;;;4975012;28;20026;-72
2021/12/28 09:23:33;;;;;;;9.40;3.60;;;-9.70;99.90;;;;;;4975201;28;20027;-72
2021/12/28 09:25:59;;;;;;;4.20;2.63;;;-9.80;99.90;;;;;;4974966;28;20030;-82
2021/12/28 09:28:25;;;;;;;4.50;4.07;;;-9.70;99.90;;;;;;4974990;28;20031;-72
2021/12/28 09:30:51;;;;;;;7.18;3.78;;;-6.70;99.90;;;;;;4974948;28;20031;-71
2021/12/28 09:33:18;;;;;;;6.22;3.88;;;-7.10;99.90;;;;;;4975036;28;20022;-71
2021/12/28 09:35:44;;;;;;;7.07;3.58;;;-7.90;99.90;;;;;;4973502;28;20038;-71
2021/12/28 09:38:10;;;;;;;13.05;4.03;;;-8.50;99.90;;;;;;4974569;28;20051;-71
2021/12/28 09:40:37;;;;;;;5.63;3.08;;;-8.80;99.90;;;;;;4974726;28;20034;-71
2021/12/28 09:43:05;;;;;;;9.95;3.75;;;-9.00;99.90;;;;;;4974575;28;20038;-74
2021/12/28 09:45:33;;;;;;;9.40;4.38;;;-8.60;99.90;;;;;;4974444;28;20030;-79
2021/12/28 09:47:59;;;;;;;8.10;3.20;;;-8.90;99.90;;;;;;4974699;28;20386;-72
2021/12/28 09:50:26;;;;;;;4.75;3.10;;;-9.10;99.90;;;;;;4974935;28;20444;-71
2021/12/28 09:52:52;;;;;;;5.20;3.08;;;-9.40;99.90;;;;;;4974601;28;20027;-72
2021/12/28 09:55:22;;;;;;;5.35;3.33;;;-9.50;99.90;;;;;;4974698;28;20030;-72
2021/12/28 09:57:49;;;;;;;6.13;3.30;;;-9.70;99.90;;;;;;4974679;28;20031;-72
2021/12/28 10:00:16;;;;;;;6.53;3.25;;;-9.80;99.90;;;;;;4974213;28;20026;-71
2021/12/28 10:02:43;;;;;;;5.28;3.17;;;-9.80;99.90;;;;;;4974437;28;20038;-74
2021/12/28 10:05:12;;;;;;;8.70;3.28;;;-9.90;99.90;;;;;;4974261;28;20105;-74
2021/12/28 10:07:48;;;;;;;5.60;3.10;;;-9.90;99.90;;;;;;4974322;28;20023;-74
2021/12/28 10:10:15;;;;;;;5.55;2.92;;;-10.00;99.90;;;;;;4973788;28;20034;-74
2021/12/28 10:12:45;;;;;;;5.32;2.80;;;-10.10;99.90;;;;;;4974516;28;20022;-74
2021/12/28 10:15:14;;;;;;;;;;;-10.10;99.90;;;;;;4974393;28;20063;-74
2021/12/28 10:17:43;;;;;;;4.43;2.95;;;-10.10;99.90;;;;;;4974088;28;19906;-74
2021/12/28 10:20:16;;;;;;;4.03;2.67;;;-10.10;99.90;;;;;;4974154;28;20053;-74
2021/12/28 10:22:47;;;;;;;5.97;3.15;;;-10.10;99.90;;;;;;4974080;28;20449;-75
2021/12/28 10:25:47;;;;;;;5.03;3.03;;;-10.10;99.90;;;;;;4973926;28;20033;-73
2021/12/28 10:28:19;;;;;;;4.57;3.00;;;-10.10;99.90;;;;;;4971770;28;20078;-70
2021/12/28 10:30:48;;;;;;;6.00;3.30;;;-10.10;99.90;;;;;;4973998;28;20027;-71
2021/12/28 10:33:19;;;;;;;10.63;3.55;;;-10.10;99.90;;;;;;4973790;28;20023;-75
2021/12/28 10:35:51;;;;;;;7.28;3.28;;;-10.00;99.90;;;;;;4973840;28;20034;-75
2021/12/28 10:38:23;;;;;;;6.63;3.33;;;-9.70;99.90;;;;;;4973353;28;20130;-74
2021/12/28 10:40:55;;;;;;;7.65;2.95;;;-9.80;99.90;;;;;;4973584;28;20140;-74
2021/12/28 10:43:24;;;;;;;7.00;3.60;;;-9.80;99.90;;;;;;4973764;28;20102;-74
2021/12/28 10:46:00;;;;;;;6.05;3.38;;;-9.90;99.90;;;;;;4973569;28;20114;-75
2021/12/28 10:48:37;;;;;;;5.97;3.30;;;-9.90;99.90;;;;;;4973725;28;20027;-74
2021/12/28 10:51:13;;;;;;;7.68;3.20;;;-9.90;99.90;;;;;;4973423;28;20054;-74
2021/12/28 10:53:52;;;;;;;5.63;3.40;;;-9.90;99.90;;;;;;4973608;28;20033;-74
2021/12/28 10:56:18;;;;;;;4.90;3.67;;;-9.90;99.90;;;;;;4973123;28;20087;-74
2021/12/28 10:58:46;;;;;;;6.90;3.72;;;-9.90;99.90;;;;;;4973468;28;20034;-74
2021/12/28 11:01:18;;;;;;;6.90;3.25;;;-9.90;99.90;;;;;;4971901;28;20153;-74
2021/12/28 11:03:50;;;;;;;4.28;2.95;;;-9.90;99.90;;;;;;4973724;28;20029;-74
2021/12/28 11:06:21;;;;;;;10.52;3.72;;;-9.90;99.90;;;;;;4973549;28;20101;-74
2021/12/28 11:08:50;;;;;;;12.07;3.45;;;-9.90;99.90;;;;;;4973671;28;20050;-74
2021/12/28 11:11:19;;;;;;;10.63;3.45;;;-9.90;99.90;;;;;;4973376;28;20043;-74
2021/12/28 11:13:46;;;;;;;5.30;3.13;;;-9.90;99.90;;;;;;4973240;28;20094;-74
2021/12/28 11:16:14;;;;;;;8.23;3.38;;;-9.90;99.90;;;;;;4972979;28;20064;-74
2021/12/28 11:18:45;;;;;;;7.00;2.85;;;-9.90;99.90;;;;;;4973210;28;20034;-74
2021/12/28 11:21:13;;;;;;;8.98;3.42;;;-9.90;99.90;;;;;;4973060;28;20077;-74
2021/12/28 11:23:39;;;;;;;10.18;3.90;;;-9.90;99.90;;;;;;4971193;28;20027;-73
2021/12/28 11:26:07;;;;;;;12.00;4.07;;;-9.90;99.90;;;;;;4972864;28;20368;-74
2021/12/28 11:28:34;;;;;;;9.98;4.05;;;-9.90;99.90;;;;;;4973313;28;20038;-73
2021/12/28 11:31:16;;;;;;;9.18;3.72;;;-10.00;99.90;;;;;;4972877;28;20085;-74
2021/12/28 11:33:46;;;;;;;5.97;3.95;;;-10.00;99.90;;;;;;4973318;28;20484;-74
2021/12/28 11:36:13;;;;;;;13.75;4.28;;;-10.00;99.90;;;;;;4972655;28;20062;-74
2021/12/28 11:38:40;;;;;;;19.13;4.45;;;-10.00;99.90;;;;;;4972653;28;20039;-74
2021/12/28 11:41:06;;;;;;;10.77;4.50;;;-10.10;99.90;;;;;;4971377;28;20613;-74
2021/12/28 11:43:37;;;;;;;11.98;4.88;;;-10.10;99.90;;;;;;4972852;28;20027;-74
2021/12/28 11:46:03;;;;;;;15.73;5.07;;;-10.20;99.90;;;;;;4972688;28;20035;-74
2021/12/28 11:48:30;;;;;;;18.60;5.80;;;-10.40;99.90;;;;;;4972673;28;20509;-74
2021/12/28 11:50:55;;;;;;;12.10;5.07;;;-10.40;99.90;;;;;;4972855;28;20027;-74
2021/12/28 11:53:22;;;;;;;14.63;5.50;;;-10.40;99.90;;;;;;4972730;28;20502;-74
2021/12/28 11:55:48;;;;;;;12.40;6.18;;;-10.40;99.90;;;;;;4972961;28;20035;-74
2021/12/28 11:58:14;;;;;;;12.88;4.97;;;-10.40;99.90;;;;;;4972725;28;20056;-74
2021/12/28 12:00:41;;;;;;;10.27;4.20;;;-10.40;99.90;;;;;;4972867;28;20390;-74
2021/12/28 12:03:07;;;;;;;10.88;4.47;;;-10.40;99.90;;;;;;4972680;28;20387;-74
2021/12/28 12:05:34;;;;;;;12.93;4.15;;;-8.50;99.90;;;;;;4972726;28;20019;-74
2021/12/28 12:08:08;;;;;;;18.83;5.20;;;-8.40;99.90;;;;;;4972680;28;20035;-74
2021/12/28 12:10:36;;;;;;;10.55;4.40;;;-8.80;99.90;;;;;;4972730;28;20023;-74
2021/12/28 12:13:23;;;;;;;12.98;5.75;;;-9.30;99.90;;;;;;4972482;28;20457;-70
2021/12/28 12:15:56;;;;;;;12.13;4.80;;;-9.60;99.90;;;;;;4972766;28;20386;-75
2021/12/28 12:18:25;;;;;;;11.07;5.30;;;-9.80;99.90;;;;;;4971404;28;20027;-74
2021/12/28 12:21:06;;;;;;;12.57;5.13;;;-9.90;99.90;;;;;;4972676;28;20027;-74
2021/12/28 12:23:45;;;;;;;13.25;5.55;;;-9.90;99.90;;;;;;4972970;28;20034;-71
2021/12/28 12:26:17;;;;;;;15.90;6.40;;;-9.90;99.90;;;;;;4970842;28;20038;-71
2021/12/28 12:28:49;;;;;;;13.18;5.45;;;-9.90;99.90;;;;;;4972504;28;20027;-71
2021/12/28 12:31:30;;;;;;;15.25;6.15;;;-9.90;99.90;;;;;;4972432;28;20022;-71
2021/12/28 12:33:57;;;;;;;22.83;6.30;;;-9.90;99.90;;;;;;4973527;28;20348;-71
2021/12/28 12:36:41;;;;;;;17.70;6.93;;;-9.90;99.90;;;;;;4974510;28;20035;-71
2021/12/28 12:39:08;;;;;;;19.65;6.35;;;-9.80;99.90;;;;;;4975722;28;20051;-70
2021/12/28 12:41:47;;;;;;;19.55;7.22;;;-9.80;99.90;;;;;;4975846;28;20033;-71
2021/12/28 12:44:20;;;;;;;28.15;9.25;;;-6.70;99.90;;;;;;4976015;28;20050;-71
2021/12/28 12:46:46;;;;;;;30.80;10.35;;;-6.60;99.90;;;;;;4975875;28;20113;-71
2021/12/28 12:49:30;;;;;;;35.92;9.52;;;-7.40;99.90;;;;;;4975627;28;20394;-71
2021/12/28 12:52:10;;;;;;;25.40;8.55;;;-8.10;99.90;;;;;;4975661;28;20501;-71
2021/12/28 12:54:46;;;;;;;22.75;8.70;;;-8.50;99.90;;;;;;4974195;28;20467;-71
2021/12/28 12:57:23;;;;;;;19.65;6.85;;;-8.80;99.90;;;;;;4975702;28;20441;-71
2021/12/28 12:59:52;;;;;;;20.92;6.97;;;-9.00;99.90;;;;;;4975574;28;20073;-71
2021/12/28 13:02:22;;;;;;;14.85;7.10;;;-9.10;99.90;;;;;;4975445;28;20054;-71
2021/12/28 13:04:54;;;;;;;21.27;8.15;;;-9.20;99.90;;;;;;4975744;28;20038;-71
2021/12/28 13:07:24;;;;;;;20.35;8.05;;;-9.20;99.90;;;;;;4975137;28;20027;-72
2021/12/28 13:09:57;;;;;;;;;;;-9.30;99.90;;;;;;4975923;28;20093;-72
2021/12/28 13:12:23;;;;;;;28.83;11.10;;;-9.30;99.90;;;;;;4975267;28;19906;-74
2021/12/28 13:14:50;;;;;;;27.70;9.75;;;-4.60;99.90;;;;;;4974015;28;20494;-72
2021/12/28 13:17:22;;;;;;;18.58;9.20;;;-4.30;99.90;;;;;;4975551;28;20035;-76
2021/12/28 13:20:19;;;;;;;24.10;8.65;;;-5.40;99.90;;;;;;4975392;28;20027;-76
2021/12/28 13:23:01;;;;;;;20.23;8.40;;;-6.50;99.90;;;;;;4974854;28;20031;-77
2021/12/28 13:25:47;;;;;;;18.40;7.78;;;-7.30;99.90;;;;;;4974959;28;20030;-75
2021/12/28 13:28:18;;;;;;;18.50;7.65;;;-7.70;99.90;;;;;;4975060;28;20473;-75
2021/12/28 13:30:45;;;;;;;21.85;7.85;;;-8.10;99.90;;;;;;4975078;28;20035;-75
2021/12/28 13:33:22;;;;;;;18.52;8.00;;;-8.30;99.90;;;;;;4974852;28;20026;-75
2021/12/28 13:35:53;;;;;;;21.63;8.93;;;-8.40;99.90;;;;;;4974995;28;20042;-75
2021/12/28 13:38:19;;;;;;;25.52;8.45;;;-8.60;99.90;;;;;;4974511;28;20078;-75
2021/12/28 13:40:53;;;;;;;20.35;8.27;;;-8.70;99.90;;;;;;4974977;28;20039;-76
2021/12/28 13:43:26;;;;;;;18.52;8.70;;;-8.90;99.90;;;;;;4974551;28;20030;-75
2021/12/28 13:46:09;;;;;;;29.10;10.60;;;-9.00;99.90;;;;;;4973971;28;20047;-75
2021/12/28 13:48:38;;;;;;;24.17;9.88;;;-9.20;99.90;;;;;;4974794;28;20033;-75
2021/12/28 13:51:05;;;;;;;24.25;10.07;;;-9.20;99.90;;;;;;4972718;28;20077;-74